Time;durP1;ratioP1;P1;durP2;ratioP2;P2;SDS_P1;SDS_P2;PMS_P1;PMS_P2;Temp;Humidity;BMP_temperature;BMP_pressure;BME280_temperature;BME280_humidity;BME280_pressure;Samples;Min_cycle;Max_cycle;Signal;HPM_P1;HPM_P2
2022/11/23 00:02:42;;;;;;;2.63;2.53;;;13.30;82.20;;;;;;5052516;28;20292;-66
2022/11/23 00:05:31;;;;;;;0.40;0.40;;;13.40;82.70;;;;;;5052822;28;20534;-67
2022/11/23 00:08:19;;;;;;;0.50;0.50;;;13.50;82.60;;;;;;5052319;28;20983;-66
2022/11/23 00:11:07;;;;;;;0.40;0.40;;;13.70;82.30;;;;;;5052492;28;20327;-66
2022/11/23 00:13:56;;;;;;;0.40;0.40;;;13.70;82.20;;;;;;5051538;28;20198;-65
2022/11/23 00:16:45;;;;;;;0.40;0.40;;;13.90;81.90;;;;;;5052292;28;20201;-67
2022/11/23 00:19:33;;;;;;;0.40;0.40;;;14.00;81.70;;;;;;5051335;28;20228;-66
2022/11/23 00:22:21;;;;;;;1.33;1.23;;;14.00;81.40;;;;;;5051571;28;20767;-66
2022/11/23 00:25:09;;;;;;;0.40;0.40;;;14.10;81.20;;;;;;5052031;28;20735;-66
2022/11/23 00:27:58;;;;;;;1.60;0.97;;;14.20;81.10;;;;;;5051196;28;20471;-66
2022/11/23 00:30:49;;;;;;;1.07;0.90;;;14.30;81.10;;;;;;5051254;28;20280;-66
2022/11/23 00:33:38;;;;;;;0.57;0.57;;;14.30;80.90;;;;;;5051796;28;20219;-66
2022/11/23 00:36:27;;;;;;;3.70;2.97;;;14.30;80.70;;;;;;5051443;28;20696;-66
2022/11/23 00:39:15;;;;;;;1.70;1.60;;;14.30;80.40;;;;;;5051731;28;20237;-66
2022/11/23 00:42:03;;;;;;;1.05;1.05;;;14.20;80.30;;;;;;5052660;28;20243;-65
2022/11/23 00:44:51;;;;;;;0.40;0.40;;;14.20;80.20;;;;;;5052795;28;20288;-66
2022/11/23 00:47:39;;;;;;;0.40;0.40;;;14.20;80.50;;;;;;5051512;28;20214;-66
2022/11/23 00:50:29;;;;;;;0.40;0.40;;;14.10;80.50;;;;;;5051151;28;20280;-65
2022/11/23 00:53:17;;;;;;;0.40;0.40;;;14.30;80.70;;;;;;5051879;28;20217;-65
2022/11/23 00:56:05;;;;;;;0.50;0.50;;;14.00;80.40;;;;;;5051913;28;20280;-65
2022/11/23 00:58:55;;;;;;;0.57;0.57;;;14.00;80.50;;;;;;5052539;28;20320;-65
2022/11/23 01:01:43;;;;;;;1.57;1.47;;;14.00;80.70;;;;;;5052428;28;20278;-65
2022/11/23 01:04:31;;;;;;;3.22;3.13;;;13.80;80.60;;;;;;5051541;28;20216;-65
2022/11/23 01:07:21;;;;;;;2.45;2.35;;;13.80;80.80;;;;;;5052268;28;20323;-66
2022/11/23 01:10:09;;;;;;;0.40;0.40;;;13.70;81.00;;;;;;5050884;28;20201;-65
2022/11/23 01:12:57;;;;;;;0.40;0.40;;;13.60;81.00;;;;;;5051088;28;20318;-65
2022/11/23 01:15:49;;;;;;;1.27;1.27;;;13.60;81.10;;;;;;5051046;28;20336;-64
2022/11/23 01:18:37;;;;;;;0.40;0.40;;;13.60;81.20;;;;;;5031008;28;20683;-65
2022/11/23 01:21:27;;;;;;;0.83;0.83;;;13.50;81.40;;;;;;5031743;28;20715;-65
2022/11/23 01:24:19;;;;;;;0.50;0.50;;;13.40;81.40;;;;;;5031743;28;20289;-65
2022/11/23 01:27:07;;;;;;;0.50;0.50;;;13.40;81.40;;;;;;5032084;28;20321;-65
2022/11/23 01:29:55;;;;;;;0.40;0.40;;;13.40;81.60;;;;;;5031645;28;20209;-66
2022/11/23 01:32:43;;;;;;;0.40;0.40;;;13.40;81.80;;;;;;5031836;28;20300;-66
2022/11/23 01:35:31;;;;;;;0.50;0.50;;;13.40;81.80;;;;;;5032055;28;20579;-66
2022/11/23 01:38:19;;;;;;;0.40;0.40;;;13.40;81.80;;;;;;5032076;28;20271;-66
2022/11/23 01:41:12;;;;;;;0.40;0.40;;;13.40;82.70;;;;;;5031446;28;20284;-66
2022/11/23 01:44:01;;;;;;;0.40;0.40;;;13.50;82.50;;;;;;5033602;28;20286;-66
2022/11/23 01:46:49;;;;;;;0.40;0.40;;;13.50;82.30;;;;;;5035606;28;20313;-66
2022/11/23 01:49:40;;;;;;;0.60;0.60;;;13.60;82.20;;;;;;5035266;28;20233;-66
2022/11/23 01:52:28;;;;;;;0.40;0.40;;;13.70;82.00;;;;;;5035344;28;20309;-66
2022/11/23 01:55:17;;;;;;;0.40;0.40;;;13.70;81.80;;;;;;5035539;28;20202;-65
2022/11/23 01:58:09;;;;;;;0.40;0.40;;;13.80;81.70;;;;;;5034503;28;20206;-64
2022/11/23 02:00:58;;;;;;;0.40;0.40;;;13.80;81.60;;;;;;5035454;28;20318;-66
2022/11/23 02:03:48;;;;;;;2.80;2.67;;;13.80;81.40;;;;;;5035317;28;20586;-65
2022/11/23 02:06:37;;;;;;;0.40;0.40;;;13.80;81.30;;;;;;5035718;28;20277;-65
2022/11/23 02:09:25;;;;;;;0.40;0.40;;;13.80;81.40;;;;;;5035125;28;20244;-66
2022/11/23 02:12:14;;;;;;;0.50;0.50;;;13.70;81.30;;;;;;5034706;28;20722;-65
2022/11/23 02:15:04;;;;;;;0.40;0.40;;;13.70;81.30;;;;;;5035323;28;20284;-66
2022/11/23 02:17:53;;;;;;;0.40;0.40;;;13.70;81.40;;;;;;5051475;28;20202;-64
2022/11/23 02:20:42;;;;;;;0.70;0.70;;;13.60;81.40;;;;;;5054034;28;20236;-65
2022/11/23 02:23:36;;;;;;;0.40;0.40;;;13.60;81.30;;;;;;5053617;28;20201;-65
2022/11/23 02:26:27;;;;;;;0.40;0.40;;;13.60;81.50;;;;;;5053355;28;20279;-64
2022/11/23 02:29:20;;;;;;;0.40;0.40;;;13.60;81.40;;;;;;5053820;28;20982;-65
2022/11/23 02:32:08;;;;;;;0.40;0.40;;;13.50;81.40;;;;;;5054216;28;20528;-64
2022/11/23 02:34:56;;;;;;;0.40;0.40;;;13.50;81.80;;;;;;5060869;28;20205;-65
2022/11/23 02:37:45;;;;;;;0.60;0.60;;;13.40;81.60;;;;;;5047480;28;20204;-64
2022/11/23 02:40:35;;;;;;;0.40;0.40;;;13.40;81.80;;;;;;5053122;28;20198;-65
2022/11/23 02:43:25;;;;;;;0.50;0.50;;;13.40;81.90;;;;;;5053636;28;20193;-65
2022/11/23 02:46:13;;;;;;;0.40;0.40;;;13.40;81.80;;;;;;5053810;28;20251;-67
2022/11/23 02:49:01;;;;;;;0.40;0.40;;;13.40;81.80;;;;;;5052553;28;21018;-66
2022/11/23 02:51:49;;;;;;;0.40;0.40;;;13.40;82.20;;;;;;5052879;28;20225;-66
2022/11/23 02:54:37;;;;;;;0.40;0.40;;;13.40;82.00;;;;;;5053529;28;20201;-66
2022/11/23 02:57:25;;;;;;;0.40;0.40;;;13.40;82.20;;;;;;5053685;28;20416;-66
2022/11/23 03:00:16;;;;;;;0.60;0.60;;;13.40;82.30;;;;;;5053171;28;20699;-66
2022/11/23 03:03:04;;;;;;;0.40;0.40;;;13.40;82.50;;;;;;5053312;28;20582;-66
2022/11/23 03:05:52;;;;;;;0.40;0.40;;;13.50;82.40;;;;;;5053136;28;20193;-66
2022/11/23 03:08:40;;;;;;;0.40;0.40;;;13.60;82.30;;;;;;5053510;28;20220;-66
2022/11/23 03:11:28;;;;;;;0.40;0.40;;;13.60;82.20;;;;;;5052527;28;20446;-66
2022/11/23 03:14:16;;;;;;;0.50;0.50;;;13.60;82.10;;;;;;5053303;28;20199;-66
2022/11/23 03:17:06;;;;;;;0.40;0.40;;;13.60;81.70;;;;;;5053055;28;20197;-66
2022/11/23 03:19:54;;;;;;;0.40;0.40;;;13.60;81.70;;;;;;5053045;28;20712;-65
2022/11/23 03:22:42;;;;;;;0.40;0.40;;;13.60;81.70;;;;;;5051192;28;20240;-66
2022/11/23 03:25:30;;;;;;;5.40;3.40;;;13.60;81.50;;;;;;5051821;28;20743;-66
2022/11/23 03:28:18;;;;;;;0.40;0.40;;;13.60;81.60;;;;;;5052864;28;20216;-66
2022/11/23 03:31:06;;;;;;;0.40;0.40;;;13.60;82.10;;;;;;5051432;28;20236;-65
2022/11/23 03:33:55;;;;;;;0.40;0.40;;;13.60;81.80;;;;;;5052799;28;20212;-66
2022/11/23 03:36:43;;;;;;;0.40;0.40;;;13.60;81.70;;;;;;5053217;28;20201;-65
2022/11/23 03:39:32;;;;;;;0.40;0.40;;;13.50;81.60;;;;;;5052261;28;20204;-65
2022/11/23 03:42:20;;;;;;;0.40;0.40;;;13.50;81.60;;;;;;5051144;28;20590;-66
2022/11/23 03:45:09;;;;;;;0.40;0.40;;;13.50;81.70;;;;;;5051033;28;20216;-65
2022/11/23 03:47:57;;;;;;;0.50;0.50;;;13.40;81.70;;;;;;5052849;28;20519;-65
2022/11/23 03:50:46;;;;;;;0.40;0.40;;;13.40;81.90;;;;;;5050873;28;20460;-65
2022/11/23 03:53:34;;;;;;;0.40;0.40;;;13.40;81.90;;;;;;5052158;28;20224;-65
2022/11/23 03:56:23;;;;;;;0.77;0.77;;;13.30;82.00;;;;;;5051057;28;20704;-66
2022/11/23 03:59:11;;;;;;;0.40;0.40;;;13.30;82.20;;;;;;5052360;28;20327;-65
2022/11/23 04:01:59;;;;;;;0.60;0.60;;;13.30;82.00;;;;;;5050792;28;20225;-66
2022/11/23 04:04:47;;;;;;;0.40;0.40;;;13.30;82.50;;;;;;5052840;28;20564;-65
2022/11/23 04:07:36;;;;;;;0.40;0.40;;;13.30;82.40;;;;;;5051398;28;20209;-66
2022/11/23 04:10:25;;;;;;;0.40;0.40;;;13.40;82.70;;;;;;5050444;28;20363;-66
2022/11/23 04:13:13;;;;;;;0.40;0.40;;;13.50;82.70;;;;;;5052307;28;20217;-66
2022/11/23 04:16:01;;;;;;;0.90;0.87;;;13.60;82.60;;;;;;5051292;28;20207;-66
2022/11/23 04:18:49;;;;;;;2.40;2.30;;;13.70;82.40;;;;;;5052702;28;20205;-66
2022/11/23 04:21:37;;;;;;;0.40;0.40;;;13.80;82.10;;;;;;5053526;28;20244;-66
2022/11/23 04:24:26;;;;;;;0.50;0.50;;;13.90;82.00;;;;;;5052732;28;20201;-67
2022/11/23 04:27:14;;;;;;;1.03;1.03;;;13.90;81.80;;;;;;5053687;28;20284;-66
2022/11/23 04:30:03;;;;;;;2.43;2.30;;;14.00;81.70;;;;;;5051702;28;20225;-67
2022/11/23 04:32:51;;;;;;;0.40;0.40;;;14.00;81.60;;;;;;5053072;28;20233;-66
2022/11/23 04:35:39;;;;;;;0.50;0.50;;;14.10;81.50;;;;;;5053603;28;20208;-65
2022/11/23 04:38:27;;;;;;;0.40;0.40;;;14.10;81.30;;;;;;5052758;28;20424;-66
2022/11/23 04:41:16;;;;;;;0.60;0.60;;;14.10;81.00;;;;;;5053432;28;20218;-66
2022/11/23 04:44:05;;;;;;;0.40;0.40;;;14.10;80.90;;;;;;5052250;28;20201;-66
2022/11/23 04:46:53;;;;;;;0.40;0.40;;;14.00;80.90;;;;;;5053853;28;20211;-66
2022/11/23 04:49:41;;;;;;;0.40;0.40;;;14.00;80.90;;;;;;5052300;28;20225;-65
2022/11/23 04:52:29;;;;;;;0.40;0.40;;;14.00;80.50;;;;;;5077955;22;20606;-64
2022/11/23 04:55:17;;;;;;;0.40;0.40;;;13.90;81.00;;;;;;5051898;28;20212;-66
2022/11/23 04:58:06;;;;;;;0.40;0.40;;;13.90;81.30;;;;;;5051454;28;20588;-64
2022/11/23 05:00:54;;;;;;;0.40;0.40;;;13.90;81.20;;;;;;5051072;28;20208;-64
2022/11/23 05:03:43;;;;;;;0.40;0.40;;;13.80;81.10;;;;;;5032170;28;20336;-64
2022/11/23 05:06:31;;;;;;;2.03;1.93;;;13.80;81.30;;;;;;5031853;28;20201;-64
2022/11/23 05:09:19;;;;;;;0.40;0.40;;;13.70;81.40;;;;;;5031976;28;20620;-64
2022/11/23 05:12:07;;;;;;;0.40;0.40;;;13.70;81.30;;;;;;5031672;28;20596;-64
2022/11/23 05:14:56;;;;;;;0.40;0.40;;;13.60;81.40;;;;;;5032051;28;20202;-64
2022/11/23 05:17:44;;;;;;;0.40;0.40;;;13.60;81.70;;;;;;5046944;28;20201;-65
2022/11/23 05:20:33;;;;;;;0.40;0.40;;;13.50;81.70;;;;;;5056039;28;20221;-65
2022/11/23 05:23:21;;;;;;;0.40;0.40;;;13.50;81.80;;;;;;5055469;28;20232;-64
2022/11/23 05:26:09;;;;;;;0.40;0.40;;;13.40;82.00;;;;;;5055116;28;20204;-64
2022/11/23 05:28:57;;;;;;;0.40;0.40;;;13.40;82.20;;;;;;5056028;28;20284;-64
2022/11/23 05:31:46;;;;;;;0.40;0.40;;;13.40;82.20;;;;;;5055086;28;20263;-64
2022/11/23 05:34:34;;;;;;;0.67;0.67;;;13.40;82.10;;;;;;5056038;28;20205;-64
2022/11/23 05:37:22;;;;;;;0.40;0.40;;;13.40;82.40;;;;;;5055866;28;20932;-65
2022/11/23 05:40:11;;;;;;;0.40;0.40;;;13.40;82.50;;;;;;5054858;28;20515;-64
2022/11/23 05:43:00;;;;;;;0.40;0.40;;;13.50;82.40;;;;;;5055164;28;20638;-64
2022/11/23 05:45:48;;;;;;;0.70;0.70;;;13.60;82.30;;;;;;5054649;28;20682;-66
2022/11/23 05:48:38;;;;;;;0.50;0.50;;;13.60;82.00;;;;;;5055695;28;20331;-67
2022/11/23 05:51:26;;;;;;;0.40;0.40;;;13.60;82.20;;;;;;5053918;28;20214;-64
2022/11/23 05:54:14;;;;;;;0.40;0.40;;;13.60;81.70;;;;;;5055783;28;20224;-63
2022/11/23 05:57:02;;;;;;;0.40;0.40;;;13.60;81.70;;;;;;5054840;28;20284;-64
2022/11/23 05:59:50;;;;;;;0.40;0.40;;;13.60;81.90;;;;;;5054900;28;21109;-64
2022/11/23 06:02:38;;;;;;;0.40;0.40;;;13.60;81.70;;;;;;5054442;28;20217;-64
2022/11/23 06:05:30;;;;;;;2.57;2.40;;;13.60;81.80;;;;;;5055603;28;20203;-64
2022/11/23 06:08:18;;;;;;;1.03;1.03;;;13.60;81.70;;;;;;5054338;28;20513;-65
2022/11/23 06:11:06;;;;;;;0.40;0.40;;;13.60;81.70;;;;;;5055047;28;20213;-65
2022/11/23 06:13:54;;;;;;;0.40;0.40;;;13.50;81.70;;;;;;5053829;28;20203;-65
2022/11/23 06:16:42;;;;;;;0.40;0.40;;;13.50;81.80;;;;;;5054933;28;20428;-65
2022/11/23 06:19:30;;;;;;;0.40;0.40;;;13.50;81.50;;;;;;5055154;28;20201;-64
2022/11/23 06:22:20;;;;;;;0.50;0.50;;;13.50;81.70;;;;;;5056271;28;20303;-64
2022/11/23 06:25:09;;;;;;;0.40;0.40;;;13.50;82.00;;;;;;5056092;28;20435;-65
2022/11/23 06:27:59;;;;;;;0.40;0.40;;;13.40;81.80;;;;;;5055242;28;20431;-64
2022/11/23 06:30:47;;;;;;;0.40;0.40;;;13.40;82.10;;;;;;5053975;28;20221;-64
2022/11/23 06:33:35;;;;;;;2.03;1.93;;;13.30;81.90;;;;;;5054348;28;20312;-64
2022/11/23 06:36:23;;;;;;;0.90;0.90;;;13.30;81.90;;;;;;5054743;28;20211;-64
2022/11/23 06:39:12;;;;;;;0.50;0.50;;;13.30;82.30;;;;;;5054792;28;20205;-64
2022/11/23 06:42:00;;;;;;;0.40;0.40;;;13.30;82.10;;;;;;5053600;28;20307;-64
2022/11/23 06:45:09;;;;;;;0.40;0.40;;;13.30;82.70;;;;;;5052374;28;20427;-65
2022/11/23 06:47:57;;;;;;;6.50;1.33;;;13.50;82.80;;;;;;5054805;28;20201;-65
2022/11/23 06:50:46;;;;;;;7.30;2.67;;;13.60;82.60;;;;;;5054288;28;20221;-64
2022/11/23 06:53:34;;;;;;;0.40;0.40;;;13.70;82.30;;;;;;5055081;28;20237;-64
2022/11/23 06:56:23;;;;;;;0.40;0.40;;;13.80;82.10;;;;;;5053582;28;20319;-64
2022/11/23 06:59:12;;;;;;;0.40;0.40;;;13.90;82.00;;;;;;5053607;28;20417;-64
2022/11/23 07:02:00;;;;;;;0.43;0.43;;;14.00;81.80;;;;;;5042775;28;20221;-65
2022/11/23 07:04:48;;;;;;;0.40;0.40;;;14.00;81.50;;;;;;5033425;28;20277;-64
2022/11/23 07:07:36;;;;;;;5.40;3.37;;;14.10;81.40;;;;;;5033557;28;20206;-64
2022/11/23 07:10:25;;;;;;;0.90;0.90;;;14.00;80.90;;;;;;5032705;28;20202;-64
2022/11/23 07:13:15;;;;;;;8.07;7.50;;;14.10;81.10;;;;;;5033281;28;20218;-65
2022/11/23 07:16:03;;;;;;;0.40;0.40;;;14.00;80.60;;;;;;5034050;28;20210;-64
2022/11/23 07:18:51;;;;;;;8.40;4.10;;;14.00;80.50;;;;;;5053638;28;20202;-64
2022/11/23 07:21:39;;;;;;;0.52;0.52;;;14.00;81.10;;;;;;5053594;28;20695;-65
2022/11/23 07:24:27;;;;;;;0.40;0.40;;;14.00;80.80;;;;;;5054043;28;20280;-65
2022/11/23 07:27:23;;;;;;;0.63;0.63;;;13.90;80.80;;;;;;5053626;28;20193;-65
2022/11/23 07:30:13;;;;;;;0.40;0.40;;;13.90;81.70;;;;;;5054211;28;20276;-65
2022/11/23 07:33:02;;;;;;;0.40;0.40;;;13.90;81.00;;;;;;5053511;28;20223;-65
2022/11/23 07:35:50;;;;;;;0.40;0.40;;;13.80;80.90;;;;;;5052703;28;20284;-65
2022/11/23 07:38:38;;;;;;;0.77;0.77;;;13.80;80.60;;;;;;5052864;28;20205;-64
2022/11/23 07:41:27;;;;;;;0.40;0.40;;;13.60;81.00;;;;;;5053029;28;20204;-65
2022/11/23 07:44:15;;;;;;;0.40;0.40;;;13.60;80.80;;;;;;5053394;28;20207;-65
2022/11/23 07:47:04;;;;;;;0.40;0.40;;;13.60;80.80;;;;;;5054488;28;20302;-65
2022/11/23 07:49:52;;;;;;;1.13;1.07;;;13.50;80.90;;;;;;5052690;28;20580;-65
2022/11/23 07:52:41;;;;;;;0.50;0.50;;;13.50;81.30;;;;;;5053179;28;20237;-63
2022/11/23 07:55:30;;;;;;;15.40;14.20;;;13.40;81.30;;;;;;5053594;28;20211;-65
2022/11/23 07:58:18;;;;;;;1.53;1.50;;;13.40;81.30;;;;;;5053214;28;20428;-64
2022/11/23 08:01:06;;;;;;;0.50;0.50;;;13.40;81.40;;;;;;5053678;28;20941;-65
2022/11/23 08:03:55;;;;;;;0.40;0.40;;;13.30;81.50;;;;;;5053167;28;20430;-65
2022/11/23 08:06:43;;;;;;;0.50;0.50;;;13.40;81.60;;;;;;5052857;28;20574;-63
2022/11/23 08:09:32;;;;;;;0.50;0.50;;;13.40;81.70;;;;;;5052533;28;20286;-65
2022/11/23 08:12:20;;;;;;;0.70;0.70;;;13.40;82.30;;;;;;5052148;28;20634;-64
2022/11/23 08:15:09;;;;;;;0.40;0.40;;;13.50;82.40;;;;;;5053811;28;20582;-64
2022/11/23 08:17:57;;;;;;;0.40;0.40;;;13.60;82.40;;;;;;5051833;28;20215;-65
2022/11/23 08:20:47;;;;;;;0.40;0.40;;;13.60;82.10;;;;;;5053246;28;20451;-65
2022/11/23 08:23:35;;;;;;;0.40;0.40;;;13.70;82.10;;;;;;5053756;28;20478;-65
2022/11/23 08:26:23;;;;;;;0.40;0.40;;;13.80;81.90;;;;;;5053381;28;20228;-65
2022/11/23 08:29:11;;;;;;;0.97;0.97;;;13.80;81.60;;;;;;5052737;28;20681;-65
2022/11/23 08:31:59;;;;;;;0.40;0.40;;;13.80;81.50;;;;;;5051626;28;20723;-65
2022/11/23 08:34:47;;;;;;;0.50;0.50;;;13.80;81.50;;;;;;5053302;28;20201;-65
2022/11/23 08:37:36;;;;;;;0.40;0.40;;;13.80;81.40;;;;;;5053243;28;20209;-65
2022/11/23 08:40:24;;;;;;;0.40;0.40;;;13.80;81.50;;;;;;5052267;28;20205;-65
2022/11/23 08:43:13;;;;;;;0.40;0.40;;;13.80;81.50;;;;;;5051972;28;20287;-65
2022/11/23 08:46:02;;;;;;;1.07;1.03;;;13.80;81.40;;;;;;5052343;28;20280;-64
2022/11/23 08:48:54;;;;;;;2.20;2.10;;;13.80;81.40;;;;;;5056176;28;20251;-65
2022/11/23 08:51:43;;;;;;;0.40;0.40;;;13.80;81.40;;;;;;5052499;28;20224;-65
2022/11/23 08:54:38;;;;;;;0.40;0.40;;;13.70;81.20;;;;;;5057646;28;20219;-65
2022/11/23 08:57:27;;;;;;;2.10;2.10;;;13.70;81.40;;;;;;5055870;28;20201;-65
2022/11/23 09:00:15;;;;;;;0.40;0.40;;;13.70;81.40;;;;;;5054940;28;20211;-65
2022/11/23 09:03:04;;;;;;;0.40;0.40;;;13.60;81.00;;;;;;5058921;28;20217;-65
2022/11/23 09:05:53;;;;;;;0.83;0.83;;;13.60;81.70;;;;;;5056198;28;20591;-65
2022/11/23 09:08:41;;;;;;;0.40;0.40;;;13.60;81.90;;;;;;5057463;28;20200;-65
2022/11/23 09:11:30;;;;;;;0.40;0.40;;;13.50;82.20;;;;;;5056555;28;20225;-65
2022/11/23 09:14:18;;;;;;;0.40;0.40;;;13.50;82.00;;;;;;5056067;28;20435;-65
2022/11/23 09:17:07;;;;;;;0.40;0.40;;;13.50;82.10;;;;;;5055802;28;20519;-65
2022/11/23 09:19:55;;;;;;;0.40;0.40;;;13.50;82.20;;;;;;5054791;28;20280;-65
2022/11/23 09:22:43;;;;;;;0.40;0.40;;;13.50;82.20;;;;;;5053701;28;20224;-65
2022/11/23 09:25:31;;;;;;;0.40;0.40;;;13.50;82.30;;;;;;5055579;28;20204;-65
2022/11/23 09:28:23;;;;;;;0.40;0.40;;;13.60;82.30;;;;;;5056397;28;20208;-65
2022/11/23 09:31:11;;;;;;;0.40;0.40;;;13.60;82.50;;;;;;5055904;28;20199;-65
2022/11/23 09:33:59;;;;;;;0.40;0.40;;;13.60;82.00;;;;;;5054926;28;20197;-65
2022/11/23 09:36:47;;;;;;;0.40;0.40;;;13.60;82.60;;;;;;5056025;28;20205;-65
2022/11/23 09:39:35;;;;;;;2.20;2.10;;;13.60;82.50;;;;;;5054551;28;20695;-65
2022/11/23 09:42:45;;;;;;;2.67;2.57;;;13.70;82.50;;;;;;5054791;28;20476;-65
2022/11/23 09:45:42;;;;;;;0.40;0.40;;;13.70;82.40;;;;;;5055777;28;20201;-65
2022/11/23 09:48:52;;;;;;;0.60;0.60;;;13.70;82.30;;;;;;5055948;28;20247;-65
2022/11/23 09:51:42;;;;;;;0.40;0.40;;;13.70;82.30;;;;;;5055225;28;20558;-65
2022/11/23 09:54:33;;;;;;;0.40;0.40;;;13.80;82.40;;;;;;5055085;28;20579;-65
2022/11/23 09:57:25;;;;;;;0.40;0.40;;;13.80;82.40;;;;;;5053777;28;20197;-65
2022/11/23 10:00:18;;;;;;;0.40;0.40;;;13.80;82.40;;;;;;5055206;28;20290;-65
2022/11/23 10:03:13;;;;;;;0.60;0.60;;;13.80;82.40;;;;;;5056580;28;20920;-65
2022/11/23 10:06:06;;;;;;;0.40;0.40;;;13.80;82.40;;;;;;5055619;28;20209;-65
2022/11/23 10:09:18;;;;;;;0.40;0.40;;;13.80;82.40;;;;;;5054423;28;20697;-65
2022/11/23 10:12:26;;;;;;;0.40;0.40;;;13.80;82.50;;;;;;5054077;28;20463;-65
2022/11/23 10:15:23;;;;;;;0.40;0.40;;;13.80;82.60;;;;;;5054736;28;20515;-65
2022/11/23 10:18:30;;;;;;;0.40;0.40;;;13.70;82.60;;;;;;5054905;28;20201;-65
2022/11/23 10:21:28;;;;;;;0.40;0.40;;;13.70;82.80;;;;;;5054967;28;20523;-65
2022/11/23 10:24:19;;;;;;;0.40;0.40;;;13.70;82.80;;;;;;5055046;28;20257;-65
2022/11/23 10:27:14;;;;;;;0.40;0.40;;;13.70;82.90;;;;;;5054054;28;20420;-66
2022/11/23 10:30:02;;;;;;;0.40;0.40;;;13.70;82.90;;;;;;5055047;28;20707;-65
2022/11/23 10:32:54;;;;;;;0.40;0.40;;;13.70;82.90;;;;;;5054246;28;20732;-65
2022/11/23 10:35:44;;;;;;;0.40;0.40;;;13.70;83.10;;;;;;5056899;28;20201;-65
2022/11/23 10:38:32;;;;;;;0.40;0.40;;;13.80;83.00;;;;;;5055037;28;20201;-65
2022/11/23 10:41:20;;;;;;;0.40;0.40;;;14.00;82.20;;;;;;5054777;28;20605;-65
2022/11/23 10:44:28;;;;;;;0.50;0.50;;;14.00;82.70;;;;;;5055251;28;20460;-66
2022/11/23 10:47:36;;;;;;;0.80;0.80;;;13.90;82.40;;;;;;5054383;28;20197;-65
2022/11/23 10:50:28;;;;;;;0.40;0.40;;;14.10;83.20;;;;;;5053835;28;20673;-64
2022/11/23 10:53:25;;;;;;;0.40;0.40;;;14.20;81.70;;;;;;5093181;22;20630;-65
2022/11/23 10:56:13;;;;;;;0.40;0.40;;;14.20;82.30;;;;;;5073399;28;20204;-65
2022/11/23 10:59:01;;;;;;;0.40;0.40;;;14.30;82.20;;;;;;5074182;28;20699;-64
2022/11/23 11:01:59;;;;;;;0.40;0.40;;;14.30;82.10;;;;;;5074343;28;20208;-64
2022/11/23 11:04:50;;;;;;;0.83;0.83;;;14.30;82.00;;;;;;5073820;28;20200;-64
2022/11/23 11:07:46;;;;;;;0.40;0.40;;;14.30;81.90;;;;;;5073203;28;20699;-65
2022/11/23 11:10:39;;;;;;;0.40;0.40;;;14.30;82.00;;;;;;5072665;28;20203;-64
2022/11/23 11:13:30;;;;;;;0.40;0.40;;;14.30;81.90;;;;;;5072778;28;20217;-64
2022/11/23 11:16:21;;;;;;;0.50;0.50;;;14.30;82.10;;;;;;5072433;28;20199;-64
2022/11/23 11:19:22;;;;;;;0.40;0.40;;;14.30;82.80;;;;;;5073006;28;20208;-65
2022/11/23 11:22:27;;;;;;;0.40;0.40;;;14.30;82.20;;;;;;5073357;28;20226;-64
2022/11/23 11:25:29;;;;;;;0.40;0.40;;;14.30;82.20;;;;;;5073796;28;20213;-65
2022/11/23 11:28:25;;;;;;;1.17;1.17;;;14.30;82.40;;;;;;5076762;28;20287;-64
2022/11/23 11:31:30;;;;;;;0.40;0.40;;;14.20;82.30;;;;;;5076770;28;20197;-64
2022/11/23 11:34:24;;;;;;;0.40;0.40;;;14.20;81.90;;;;;;5076077;28;20314;-65
2022/11/23 11:37:17;;;;;;;0.40;0.40;;;14.10;82.50;;;;;;5073233;28;20291;-65
2022/11/23 11:40:10;;;;;;;0.40;0.40;;;14.10;82.60;;;;;;5072738;28;20257;-64
2022/11/23 11:43:04;;;;;;;0.40;0.40;;;14.10;82.80;;;;;;5072624;28;20213;-65
2022/11/23 11:45:57;;;;;;;0.40;0.40;;;14.00;82.80;;;;;;5071979;28;20204;-64
2022/11/23 11:49:10;;;;;;;0.40;0.40;;;14.00;83.00;;;;;;5072495;28;20196;-64
2022/11/23 11:52:05;;;;;;;0.40;0.40;;;14.00;83.00;;;;;;5071710;28;20225;-65
2022/11/23 11:54:59;;;;;;;0.40;0.40;;;14.00;83.00;;;;;;5081717;28;20204;-66
2022/11/23 11:57:51;;;;;;;0.40;0.40;;;14.00;83.10;;;;;;5092822;28;20189;-65
2022/11/23 12:00:40;;;;;;;0.40;0.40;;;14.00;83.10;;;;;;5093907;28;20240;-66
2022/11/23 12:03:41;;;;;;;0.40;0.40;;;14.10;83.30;;;;;;5076507;28;20693;-64
2022/11/23 12:06:35;;;;;;;0.40;0.40;;;14.20;83.20;;;;;;5071812;28;20201;-65
2022/11/23 12:09:27;;;;;;;0.40;0.40;;;14.20;83.10;;;;;;5071677;28;20196;-66
2022/11/23 12:12:18;;;;;;;2.47;1.05;;;14.30;83.00;;;;;;5071080;28;20221;-64
2022/11/23 12:15:16;;;;;;;0.40;0.40;;;14.30;82.90;;;;;;5072000;28;20548;-64
2022/11/23 12:18:42;;;;;;;0.40;0.40;;;14.30;82.80;;;;;;5051471;28;20204;-64
2022/11/23 12:21:58;;;;;;;0.40;0.40;;;14.40;82.80;;;;;;5051516;28;20679;-64
2022/11/23 12:25:13;;;;;;;0.40;0.40;;;14.40;82.70;;;;;;5047387;28;20209;-65
2022/11/23 12:28:18;;;;;;;0.40;0.40;;;14.40;82.50;;;;;;5050382;28;20694;-64
2022/11/23 12:31:14;;;;;;;1.77;1.77;;;14.50;82.50;;;;;;5052208;28;20635;-64
2022/11/23 12:34:16;;;;;;;0.40;0.40;;;14.50;82.70;;;;;;5051754;28;20697;-65
2022/11/23 12:37:34;;;;;;;0.40;0.40;;;14.50;82.60;;;;;;5051259;28;20228;-64
2022/11/23 12:40:53;;;;;;;0.40;0.40;;;14.40;82.60;;;;;;5048491;28;20287;-65
2022/11/23 12:43:57;;;;;;;0.40;0.40;;;14.40;82.70;;;;;;5048844;28;20224;-64
2022/11/23 12:46:50;;;;;;;0.50;0.50;;;14.40;82.70;;;;;;5052063;28;20307;-64
2022/11/23 12:49:44;;;;;;;0.40;0.40;;;14.40;82.70;;;;;;5051572;28;20193;-64
2022/11/23 12:52:53;;;;;;;0.40;0.40;;;14.40;82.90;;;;;;5052399;28;20831;-65
2022/11/23 12:55:58;;;;;;;0.40;0.40;;;14.40;83.00;;;;;;5051723;28;20205;-64
2022/11/23 12:58:48;;;;;;;0.40;0.40;;;14.30;83.00;;;;;;5052512;28;20201;-64
2022/11/23 13:01:41;;;;;;;0.70;0.70;;;14.30;82.60;;;;;;5051845;28;20215;-64
2022/11/23 13:05:00;;;;;;;0.40;0.40;;;14.30;83.30;;;;;;5051635;28;20300;-64
2022/11/23 13:08:20;;;;;;;0.60;0.60;;;14.20;83.30;;;;;;5051905;28;20276;-64
2022/11/23 13:11:21;;;;;;;3.23;1.80;;;14.20;83.50;;;;;;5051436;28;20669;-64
2022/11/23 13:14:20;;;;;;;0.40;0.40;;;14.20;83.60;;;;;;5051846;28;20323;-64
2022/11/23 13:17:19;;;;;;;0.40;0.40;;;14.20;83.70;;;;;;5062159;28;20207;-65
2022/11/23 13:20:30;;;;;;;0.40;0.40;;;14.20;83.50;;;;;;5070865;28;20287;-64
2022/11/23 13:23:20;;;;;;;0.40;0.40;;;14.20;83.70;;;;;;5071823;28;20606;-65
2022/11/23 13:26:16;;;;;;;0.40;0.40;;;14.20;83.80;;;;;;5071349;28;20201;-65
2022/11/23 13:29:57;;;;;;;0.40;0.40;;;14.20;83.90;;;;;;5071152;28;20214;-65
2022/11/23 13:32:55;;;;;;;0.40;0.40;;;14.20;83.80;;;;;;5081144;28;20226;-66
2022/11/23 13:35:59;;;;;;;0.40;0.40;;;14.20;83.80;;;;;;5091243;28;20272;-66
2022/11/23 13:38:58;;;;;;;0.40;0.40;;;14.20;83.80;;;;;;5093294;28;20193;-65
2022/11/23 13:42:00;;;;;;;0.90;0.90;;;14.20;83.70;;;;;;5095281;28;20209;-66
2022/11/23 13:44:48;;;;;;;0.40;0.40;;;14.20;83.70;;;;;;5079990;28;20199;-64
2022/11/23 13:47:36;;;;;;;0.40;0.40;;;14.30;83.80;;;;;;5075093;28;20205;-64
2022/11/23 13:50:31;;;;;;;0.40;0.40;;;14.30;83.80;;;;;;5075457;28;20211;-64
2022/11/23 13:53:23;;;;;;;0.40;0.40;;;14.30;83.80;;;;;;5074522;28;20227;-64
2022/11/23 13:56:29;;;;;;;0.40;0.40;;;14.30;83.80;;;;;;5074037;28;20203;-64
2022/11/23 13:59:30;;;;;;;0.40;0.40;;;14.30;83.80;;;;;;5073658;28;20291;-64
2022/11/23 14:02:28;;;;;;;0.40;0.40;;;14.30;83.90;;;;;;5073559;28;20737;-63
2022/11/23 14:05:55;;;;;;;0.40;0.40;;;14.30;84.00;;;;;;5073751;28;20602;-63
2022/11/23 14:08:46;;;;;;;0.40;0.40;;;14.20;84.00;;;;;;5074181;28;20192;-64
2022/11/23 14:11:41;;;;;;;0.40;0.40;;;14.20;83.70;;;;;;5073312;28;20452;-64
2022/11/23 14:14:36;;;;;;;0.93;0.93;;;14.20;84.20;;;;;;5074027;28;20259;-64
2022/11/23 14:17:57;;;;;;;0.40;0.40;;;14.20;84.20;;;;;;5073664;28;20697;-64
2022/11/23 14:20:55;;;;;;;0.40;0.40;;;14.20;84.40;;;;;;5073624;28;20204;-63
2022/11/23 14:24:08;;;;;;;2.90;2.80;;;14.20;84.40;;;;;;5073818;28;20222;-63
2022/11/23 14:27:18;;;;;;;0.70;0.70;;;14.20;84.40;;;;;;5073672;28;20275;-64
2022/11/23 14:30:49;;;;;;;0.40;0.40;;;14.20;84.40;;;;;;5073668;28;20200;-64
2022/11/23 14:33:41;;;;;;;0.40;0.40;;;14.30;84.30;;;;;;5074178;28;20926;-64
2022/11/23 14:36:39;;;;;;;0.40;0.40;;;14.30;84.30;;;;;;5074151;28;20192;-63
2022/11/23 14:39:56;;;;;;;0.40;0.40;;;14.30;84.10;;;;;;5073810;28;20673;-64
2022/11/23 14:42:52;;;;;;;0.40;0.40;;;14.40;84.20;;;;;;5074159;28;20220;-63
2022/11/23 14:45:41;;;;;;;0.40;0.40;;;14.40;84.10;;;;;;5074870;28;20192;-64
2022/11/23 14:48:31;;;;;;;0.40;0.40;;;14.40;84.00;;;;;;5073674;28;20242;-64
2022/11/23 14:51:22;;;;;;;1.73;1.63;;;14.40;83.90;;;;;;5072370;28;20192;-64
2022/11/23 14:54:11;;;;;;;0.50;0.50;;;14.40;84.00;;;;;;5073601;28;20220;-64
2022/11/23 14:57:02;;;;;;;0.40;0.40;;;14.40;84.00;;;;;;5073001;28;20207;-64
2022/11/23 14:59:55;;;;;;;3.58;3.33;;;14.50;84.10;;;;;;5073329;28;20294;-64